createdAt,value
2022-07-25T00:00:54.665Z,15.60
2022-07-25T00:03:40.366Z,15.63
2022-07-25T00:06:27.746Z,15.61
2022-07-25T00:09:12.721Z,15.62
2022-07-25T00:11:57.575Z,15.63
2022-07-25T00:14:42.482Z,15.65
2022-07-25T00:17:27.431Z,15.65
2022-07-25T00:20:12.729Z,15.67
2022-07-25T00:22:58.027Z,15.65
2022-07-25T00:25:43.058Z,15.65
2022-07-25T00:28:28.419Z,15.65
2022-07-25T00:31:13.780Z,15.64
2022-07-25T00:33:58.960Z,15.65
2022-07-25T00:36:44.407Z,15.67
2022-07-25T00:39:29.069Z,15.66
2022-07-25T00:42:14.176Z,15.66
2022-07-25T00:44:59.587Z,15.61
2022-07-25T00:47:44.610Z,15.55
2022-07-25T00:50:30.346Z,15.47
2022-07-25T00:53:15.778Z,15.37
2022-07-25T00:56:01.099Z,15.30
2022-07-25T00:58:46.301Z,15.22
2022-07-25T01:01:31.431Z,15.19
2022-07-25T01:04:16.598Z,15.17
2022-07-25T01:07:02.295Z,15.10
2022-07-25T01:09:48.387Z,15.05
2022-07-25T01:12:53.891Z,15.01
2022-07-25T01:15:39.401Z,14.96
2022-07-25T01:18:24.278Z,14.89
2022-07-25T01:21:09.511Z,14.86
2022-07-25T01:23:54.288Z,14.80
2022-07-25T01:26:39.148Z,14.74
2022-07-25T01:29:24.122Z,14.65
2022-07-25T01:32:09.156Z,14.60
2022-07-25T01:34:54.148Z,14.54
2022-07-25T01:37:39.392Z,14.46
2022-07-25T01:40:24.089Z,14.38
2022-07-25T01:43:09.324Z,14.33
2022-07-25T01:45:54.625Z,14.26
2022-07-25T01:48:40.605Z,14.21
2022-07-25T01:51:26.464Z,14.20
2022-07-25T01:54:11.471Z,14.12
2022-07-25T01:56:56.443Z,14.08
2022-07-25T01:59:41.414Z,14.06
2022-07-25T02:02:26.487Z,14.03
2022-07-25T02:05:12.887Z,13.96
2022-07-25T02:07:57.752Z,13.92
2022-07-25T02:10:43.035Z,13.90
2022-07-25T02:13:27.938Z,13.89
2022-07-25T02:16:13.388Z,13.87
2022-07-25T02:18:59.358Z,13.84
2022-07-25T02:21:44.530Z,13.81
2022-07-25T02:24:29.949Z,13.74
2022-07-25T02:27:15.101Z,13.71
2022-07-25T02:30:00.272Z,13.69
2022-07-25T02:32:45.425Z,13.67
2022-07-25T02:35:30.454Z,13.64
2022-07-25T02:38:19.161Z,13.64
2022-07-25T02:41:04.542Z,13.64
2022-07-25T02:43:49.322Z,13.63
2022-07-25T02:46:34.487Z,13.66
2022-07-25T02:49:19.775Z,13.72
2022-07-25T02:52:04.746Z,13.80
2022-07-25T02:54:50.281Z,13.88
2022-07-25T02:57:35.758Z,13.96
2022-07-25T03:00:20.993Z,14.10
2022-07-25T03:03:05.673Z,14.23
2022-07-25T03:05:50.761Z,14.28
2022-07-25T03:08:36.016Z,14.49
2022-07-25T03:11:21.212Z,14.65
2022-07-25T03:14:08.357Z,14.79
2022-07-25T03:16:53.392Z,14.89
2022-07-25T03:19:38.223Z,15.05
2022-07-25T03:22:24.104Z,15.19
2022-07-25T03:25:15.830Z,15.34
2022-07-25T03:28:06.580Z,15.39
2022-07-25T03:30:52.343Z,15.33
2022-07-25T03:33:37.029Z,15.27
2022-07-25T03:36:22.041Z,15.24
2022-07-25T03:39:06.830Z,15.22
2022-07-25T03:41:52.566Z,15.25
2022-07-25T03:44:37.562Z,15.29
2022-07-25T03:47:22.731Z,15.28
2022-07-25T03:50:08.040Z,15.26
2022-07-25T03:52:53.311Z,15.26
2022-07-25T03:55:39.228Z,15.27
2022-07-25T03:58:24.172Z,15.31
2022-07-25T04:01:09.203Z,15.31
2022-07-25T04:03:55.711Z,15.34
2022-07-25T04:06:41.319Z,15.43
2022-07-25T04:09:26.272Z,15.55
2022-07-25T04:12:16.302Z,15.65
2022-07-25T04:15:01.223Z,15.78
2022-07-25T04:17:46.144Z,15.94
2022-07-25T04:20:31.141Z,16.12
2022-07-25T04:23:16.115Z,16.35
2022-07-25T04:26:01.378Z,16.71
2022-07-25T04:28:46.678Z,16.83
2022-07-25T04:31:31.643Z,17.30
2022-07-25T04:34:17.067Z,17.61
2022-07-25T04:37:01.980Z,17.68
2022-07-25T04:39:46.969Z,17.52
2022-07-25T04:42:31.904Z,17.41
2022-07-25T04:45:17.778Z,17.36
2022-07-25T04:48:03.829Z,17.16
2022-07-25T04:50:48.988Z,17.16
2022-07-25T04:53:33.858Z,17.20
2022-07-25T04:56:18.965Z,17.26
2022-07-25T04:59:06.193Z,17.55
2022-07-25T05:01:51.634Z,17.88
2022-07-25T05:04:36.492Z,17.96
2022-07-25T05:07:30.042Z,17.69
2022-07-25T05:10:14.995Z,17.54
2022-07-25T05:13:00.147Z,17.54
2022-07-25T05:15:45.159Z,17.61
2022-07-25T05:18:30.485Z,17.75
2022-07-25T05:21:15.913Z,17.94
2022-07-25T05:24:00.734Z,18.11
2022-07-25T05:26:46.630Z,18.20
2022-07-25T05:29:35.525Z,18.13
2022-07-25T05:32:20.295Z,18.13
2022-07-25T05:35:08.215Z,18.19
2022-07-25T05:37:53.125Z,18.34
2022-07-25T05:40:38.297Z,18.48
2022-07-25T05:43:23.021Z,18.27
2022-07-25T05:46:08.145Z,18.22
2022-07-25T05:48:53.370Z,18.04
2022-07-25T05:51:38.301Z,18.11
2022-07-25T05:54:23.271Z,18.06
2022-07-25T05:57:08.626Z,18.01
2022-07-25T05:59:53.834Z,17.99
2022-07-25T06:02:38.854Z,18.10
2022-07-25T06:05:24.431Z,17.89
2022-07-25T06:08:09.576Z,17.76
2022-07-25T06:10:54.649Z,17.62
2022-07-25T06:13:40.174Z,17.45
2022-07-25T06:16:25.740Z,17.36
2022-07-25T06:19:10.602Z,17.26
2022-07-25T06:21:55.544Z,17.37
2022-07-25T06:24:40.462Z,17.46
2022-07-25T06:27:29.244Z,17.47
2022-07-25T06:30:19.567Z,17.40
2022-07-25T06:33:05.300Z,17.46
2022-07-25T06:35:52.476Z,17.53
2022-07-25T06:38:37.995Z,17.66
2022-07-25T06:41:23.028Z,17.74
2022-07-25T06:44:08.692Z,17.69
2022-07-25T06:46:53.759Z,17.74
2022-07-25T06:49:39.625Z,17.90
2022-07-25T06:52:24.776Z,18.00
2022-07-25T06:55:11.277Z,18.23
2022-07-25T06:57:56.120Z,18.51
2022-07-25T07:00:41.164Z,18.66
2022-07-25T07:03:26.362Z,18.62
2022-07-25T07:06:11.125Z,18.59
2022-07-25T07:08:56.405Z,18.34
2022-07-25T07:11:41.294Z,18.25
2022-07-25T07:14:26.462Z,18.22
2022-07-25T07:17:11.399Z,18.51
2022-07-25T07:19:56.489Z,18.89
2022-07-25T07:22:48.892Z,19.07
2022-07-25T07:25:35.647Z,19.12
2022-07-25T07:28:21.382Z,18.88
2022-07-25T07:31:16.203Z,18.75
2022-07-25T07:34:02.381Z,18.95
2022-07-25T07:36:50.481Z,19.10
2022-07-25T07:39:35.574Z,19.31
2022-07-25T07:42:20.442Z,19.51
2022-07-25T07:45:17.355Z,19.85
2022-07-25T07:48:02.615Z,20.63
2022-07-25T07:50:47.600Z,20.71
2022-07-25T07:53:51.518Z,20.89
2022-07-25T07:56:36.469Z,21.43
2022-07-25T07:59:21.672Z,21.16
2022-07-25T08:02:06.621Z,20.70
2022-07-25T08:04:51.933Z,20.31
2022-07-25T08:07:36.895Z,20.28
2022-07-25T08:10:24.508Z,20.61
2022-07-25T08:13:15.088Z,21.30
2022-07-25T08:16:02.814Z,22.24
2022-07-25T08:18:47.921Z,22.80
2022-07-25T08:21:32.932Z,22.95
2022-07-25T08:24:17.963Z,22.24
2022-07-25T08:27:03.494Z,21.92
2022-07-25T08:29:48.467Z,21.37
2022-07-25T08:32:33.879Z,21.10
2022-07-25T08:35:21.432Z,21.73
2022-07-25T08:38:06.912Z,22.25
2022-07-25T08:40:54.581Z,23.15
2022-07-25T08:43:40.966Z,23.41
2022-07-25T08:46:28.135Z,23.35
2022-07-25T08:49:13.688Z,22.70
2022-07-25T08:51:58.792Z,22.41
2022-07-25T08:54:45.978Z,22.28
2022-07-25T08:57:31.618Z,22.28
2022-07-25T09:00:20.200Z,22.48
2022-07-25T09:03:05.931Z,22.59
2022-07-25T09:05:51.998Z,23.01
2022-07-25T09:08:36.664Z,23.15
2022-07-25T09:11:33.611Z,22.86
2022-07-25T09:14:18.287Z,22.67
2022-07-25T09:17:06.296Z,22.41
2022-07-25T09:19:56.188Z,22.13
2022-07-25T09:22:44.905Z,22.35
2022-07-25T09:25:30.437Z,23.34
2022-07-25T09:28:17.734Z,23.72
2022-07-25T09:31:02.554Z,23.28
2022-07-25T09:33:55.743Z,23.01
2022-07-25T09:36:54.248Z,22.67
2022-07-25T09:39:48.403Z,22.62
2022-07-25T09:42:35.689Z,23.02
2022-07-25T09:45:20.905Z,23.81
2022-07-25T09:48:05.889Z,24.83
2022-07-25T09:50:51.307Z,25.36
2022-07-25T09:53:36.814Z,25.08
2022-07-25T09:56:21.883Z,24.63
2022-07-25T09:59:07.096Z,24.06
2022-07-25T10:02:04.536Z,23.60
2022-07-25T10:05:23.035Z,23.15
2022-07-25T10:08:08.547Z,22.80
2022-07-25T10:10:53.645Z,22.58
2022-07-25T10:13:38.919Z,22.30
2022-07-25T10:16:26.028Z,22.42
2022-07-25T10:19:10.767Z,22.43
2022-07-25T10:21:55.798Z,22.68
2022-07-25T10:24:45.381Z,22.51
2022-07-25T10:27:48.067Z,22.65
2022-07-25T10:30:34.470Z,22.81
2022-07-25T10:33:20.843Z,22.95
2022-07-25T10:36:07.238Z,23.18
2022-07-25T10:38:57.002Z,23.25
2022-07-25T10:42:04.522Z,23.34
2022-07-25T10:44:54.098Z,23.76
2022-07-25T10:47:42.425Z,23.73
2022-07-25T10:50:54.303Z,23.34
2022-07-25T10:53:46.711Z,23.11
2022-07-25T10:56:36.767Z,22.63
2022-07-25T10:59:37.666Z,22.76
2022-07-25T11:02:23.653Z,23.02
2022-07-25T11:05:09.324Z,22.91
2022-07-25T11:08:20.042Z,23.13
2022-07-25T11:10:59.840Z,23.27
2022-07-25T11:13:45.014Z,23.41
2022-07-25T11:16:30.337Z,23.36
2022-07-25T11:19:33.625Z,23.53
2022-07-25T11:22:18.875Z,23.66
2022-07-25T11:25:11.408Z,23.79
2022-07-25T11:27:57.609Z,23.98
2022-07-25T11:30:43.154Z,24.03
2022-07-25T11:33:28.067Z,24.84
2022-07-25T11:36:13.533Z,25.39
2022-07-25T11:38:59.255Z,26.16
2022-07-25T11:41:44.083Z,27.02
2022-07-25T11:44:45.721Z,27.80
2022-07-25T11:47:33.258Z,29.60
2022-07-25T11:50:29.363Z,29.85
2022-07-25T11:53:16.195Z,29.32
2022-07-25T11:56:39.670Z,28.19
2022-07-25T11:59:16.412Z,28.43
2022-07-25T12:02:01.658Z,28.87
2022-07-25T12:04:58.241Z,29.89
2022-07-25T12:07:54.688Z,29.24
2022-07-25T12:10:41.064Z,28.29
2022-07-25T12:13:28.192Z,28.88
2022-07-25T12:16:13.358Z,28.32
2022-07-25T12:18:58.917Z,29.13
2022-07-25T12:21:43.633Z,28.68
2022-07-25T12:24:28.636Z,29.09
2022-07-25T12:27:13.546Z,30.26
2022-07-25T12:29:58.718Z,31.29
2022-07-25T12:32:43.938Z,31.80
2022-07-25T12:35:29.603Z,32.35
2022-07-25T12:38:14.629Z,32.43
2022-07-25T12:41:00.185Z,31.48
2022-07-25T12:43:46.184Z,30.59
2022-07-25T12:46:31.380Z,29.94
2022-07-25T12:49:16.414Z,30.49
2022-07-25T12:52:01.653Z,30.38
2022-07-25T12:54:46.719Z,30.61
2022-07-25T12:57:31.751Z,30.79
2022-07-25T13:00:19.811Z,30.46
2022-07-25T13:03:04.931Z,30.52
2022-07-25T13:05:49.889Z,29.91
2022-07-25T13:08:37.258Z,30.74
2022-07-25T13:11:22.285Z,30.24
2022-07-25T13:14:07.444Z,29.46
2022-07-25T13:16:52.830Z,28.77
2022-07-25T13:19:37.915Z,28.39
2022-07-25T13:22:23.814Z,28.02
2022-07-25T13:25:09.164Z,28.00
2022-07-25T13:27:54.150Z,28.69
2022-07-25T13:30:39.459Z,28.41
2022-07-25T13:33:24.739Z,28.16
2022-07-25T13:36:09.650Z,27.58
2022-07-25T13:38:54.612Z,26.92
2022-07-25T13:41:39.767Z,27.24
2022-07-25T13:44:24.855Z,29.30
2022-07-25T13:47:09.906Z,31.02
2022-07-25T13:49:54.793Z,31.63
2022-07-25T13:52:39.512Z,31.43
2022-07-25T13:55:25.444Z,30.79
2022-07-25T13:58:10.829Z,31.06
2022-07-25T14:00:55.730Z,32.04
2022-07-25T14:03:41.075Z,31.36
2022-07-25T14:06:26.067Z,30.29
2022-07-25T14:09:11.280Z,29.45
2022-07-25T14:11:56.745Z,29.09
2022-07-25T14:14:41.535Z,28.93
2022-07-25T14:17:30.350Z,30.17
2022-07-25T14:20:15.536Z,31.92
2022-07-25T14:23:00.439Z,33.17
2022-07-25T14:25:45.309Z,33.48
2022-07-25T14:28:30.303Z,32.94
2022-07-25T14:31:15.562Z,32.36
2022-07-25T14:34:00.525Z,31.94
2022-07-25T14:36:47.080Z,32.04
2022-07-25T14:39:31.779Z,32.85
2022-07-25T14:42:17.192Z,32.95
2022-07-25T14:45:01.923Z,32.42
2022-07-25T14:47:47.104Z,31.09
2022-07-25T14:50:32.427Z,30.62
2022-07-25T14:53:17.941Z,30.67
2022-07-25T14:56:04.885Z,31.40
2022-07-25T14:58:49.699Z,31.47
2022-07-25T15:01:34.849Z,31.99
2022-07-25T15:04:22.671Z,32.93
2022-07-25T15:07:07.497Z,32.85
2022-07-25T15:09:52.594Z,31.99
2022-07-25T15:12:37.456Z,31.60
2022-07-25T15:15:22.383Z,31.44
2022-07-25T15:18:13.446Z,32.20
2022-07-25T15:20:59.072Z,31.39
2022-07-25T15:23:44.365Z,31.11
2022-07-25T15:26:30.407Z,30.28
2022-07-25T15:29:19.923Z,30.39
2022-07-25T15:32:05.802Z,30.67
2022-07-25T15:34:50.998Z,30.80
2022-07-25T15:37:36.362Z,30.43
2022-07-25T15:40:21.615Z,31.02
2022-07-25T15:43:06.824Z,31.33
2022-07-25T15:45:51.990Z,31.92
2022-07-25T15:48:37.522Z,31.80
2022-07-25T15:51:22.798Z,31.55
2022-07-25T15:54:07.777Z,31.71
2022-07-25T15:56:52.699Z,31.23
2022-07-25T15:59:37.977Z,30.87
2022-07-25T16:02:23.527Z,30.72
2022-07-25T16:05:09.541Z,30.74
2022-07-25T16:07:54.335Z,30.80
2022-07-25T16:10:39.654Z,30.82
2022-07-25T16:13:25.569Z,30.46
2022-07-25T16:16:10.623Z,30.19
2022-07-25T16:18:56.932Z,30.73
2022-07-25T16:21:42.019Z,31.13
2022-07-25T16:24:27.098Z,30.85
2022-07-25T16:27:12.170Z,30.48
2022-07-25T16:29:57.344Z,30.71
2022-07-25T16:32:42.559Z,30.99
2022-07-25T16:35:27.425Z,30.98
2022-07-25T16:38:12.723Z,30.66
2022-07-25T16:40:57.976Z,30.31
2022-07-25T16:43:43.051Z,30.17
2022-07-25T16:46:28.679Z,30.31
2022-07-25T16:49:16.226Z,30.47
2022-07-25T16:52:00.961Z,30.30
2022-07-25T16:54:45.893Z,30.25
2022-07-25T16:57:31.539Z,30.14
2022-07-25T17:00:16.496Z,30.13
2022-07-25T17:03:01.374Z,29.95
2022-07-25T17:05:46.812Z,29.87
2022-07-25T17:08:33.213Z,29.62
2022-07-25T17:11:18.849Z,29.47
2022-07-25T17:14:03.953Z,29.13
2022-07-25T17:16:49.389Z,28.83
2022-07-25T17:19:39.066Z,28.43
2022-07-25T17:22:24.013Z,27.53
2022-07-25T17:25:09.253Z,26.02
2022-07-25T17:27:54.056Z,24.62
2022-07-25T17:30:39.120Z,23.51
2022-07-25T17:33:24.514Z,22.67
2022-07-25T17:36:09.549Z,22.00
2022-07-25T17:38:54.857Z,21.52
2022-07-25T17:41:39.959Z,21.08
2022-07-25T17:44:25.607Z,20.72
2022-07-25T17:47:10.508Z,20.42
2022-07-25T17:49:55.267Z,20.15
2022-07-25T17:52:40.224Z,19.93
2022-07-25T17:55:26.282Z,19.73
2022-07-25T17:58:14.282Z,19.56
2022-07-25T18:01:01.330Z,19.41
2022-07-25T18:03:47.176Z,19.24
2022-07-25T18:06:32.894Z,19.09
2022-07-25T18:09:19.711Z,18.88
2022-07-25T18:12:05.090Z,18.66
2022-07-25T18:14:49.949Z,18.50
2022-07-25T18:17:35.058Z,18.28
2022-07-25T18:20:19.930Z,18.14
2022-07-25T18:23:06.858Z,18.01
2022-07-25T18:25:52.615Z,17.83
2022-07-25T18:28:37.484Z,17.69
2022-07-25T18:31:22.738Z,17.55
2022-07-25T18:34:07.872Z,17.42
2022-07-25T18:36:53.136Z,17.34
2022-07-25T18:39:38.501Z,17.22
2022-07-25T18:42:27.654Z,17.19
2022-07-25T18:45:15.096Z,17.12
2022-07-25T18:47:59.931Z,17.03
2022-07-25T18:50:45.100Z,17.01
2022-07-25T18:53:30.038Z,16.95
2022-07-25T18:56:15.431Z,16.92
2022-07-25T18:59:00.448Z,16.84
2022-07-25T19:01:47.783Z,16.80
2022-07-25T19:04:32.906Z,16.70
2022-07-25T19:07:18.101Z,16.64
2022-07-25T19:10:03.404Z,16.54
2022-07-25T19:12:48.293Z,16.46
2022-07-25T19:15:34.713Z,16.36
2022-07-25T19:18:20.005Z,16.29
2022-07-25T19:21:05.480Z,16.20
2022-07-25T19:23:51.484Z,16.08
2022-07-25T19:26:37.017Z,16.01
2022-07-25T19:29:21.867Z,15.92
2022-07-25T19:32:07.259Z,15.82
2022-07-25T19:34:53.032Z,15.74
2022-07-25T19:37:38.315Z,15.68
2022-07-25T19:40:23.440Z,15.61
2022-07-25T19:43:08.413Z,15.55
2022-07-25T19:45:54.171Z,15.53
2022-07-25T19:48:39.028Z,15.47
2022-07-25T19:51:24.117Z,15.41
2022-07-25T19:54:09.533Z,15.37
2022-07-25T19:56:55.174Z,15.33
2022-07-25T19:59:40.379Z,15.26
2022-07-25T20:02:25.146Z,15.21
2022-07-25T20:05:10.652Z,15.19
2022-07-25T20:07:55.616Z,15.15
2022-07-25T20:10:41.684Z,15.11
2022-07-25T20:13:27.413Z,15.10
2022-07-25T20:16:12.289Z,15.06
2022-07-25T20:18:57.544Z,15.04
2022-07-25T20:21:42.612Z,15.02
2022-07-25T20:24:27.776Z,14.98
2022-07-25T20:27:12.471Z,14.99
2022-07-25T20:29:57.585Z,14.95
2022-07-25T20:32:42.431Z,14.92
2022-07-25T20:35:31.036Z,14.87
2022-07-25T20:38:18.897Z,14.84
2022-07-25T20:41:04.442Z,14.82
2022-07-25T20:43:50.976Z,14.75
2022-07-25T20:46:36.176Z,14.71
2022-07-25T20:49:21.093Z,14.67
2022-07-25T20:52:07.610Z,14.65
2022-07-25T20:54:52.906Z,14.65
2022-07-25T20:57:37.739Z,14.65
2022-07-25T21:00:25.219Z,14.67
2022-07-25T21:03:10.353Z,14.66
2022-07-25T21:05:55.309Z,14.65
2022-07-25T21:08:40.328Z,14.63
2022-07-25T21:11:25.263Z,14.61
2022-07-25T21:14:10.481Z,14.63
2022-07-25T21:16:55.906Z,14.61
2022-07-25T21:19:40.968Z,14.58
2022-07-25T21:22:26.412Z,14.58
2022-07-25T21:25:11.425Z,14.59
2022-07-25T21:27:56.560Z,14.61
2022-07-25T21:30:42.294Z,14.62
2022-07-25T21:33:27.539Z,14.63
2022-07-25T21:36:12.601Z,14.64
2022-07-25T21:38:57.677Z,14.65
2022-07-25T21:41:44.231Z,14.61
2022-07-25T21:44:31.742Z,14.60
2022-07-25T21:47:16.867Z,14.55
2022-07-25T21:50:24.390Z,14.53
2022-07-25T21:53:12.562Z,14.42
2022-07-25T21:55:57.418Z,14.26
2022-07-25T21:58:43.782Z,14.08
2022-07-25T22:01:28.841Z,13.93
2022-07-25T22:04:13.885Z,13.80
2022-07-25T22:06:59.297Z,13.68
2022-07-25T22:09:44.480Z,13.60
2022-07-25T22:12:29.325Z,13.51
2022-07-25T22:15:15.037Z,13.49
2022-07-25T22:18:00.356Z,13.44
2022-07-25T22:20:45.687Z,13.41
2022-07-25T22:23:30.751Z,13.34
2022-07-25T22:26:15.910Z,13.29
2022-07-25T22:29:00.963Z,13.24
2022-07-25T22:31:47.114Z,13.20
2022-07-25T22:34:32.155Z,13.13
2022-07-25T22:37:17.115Z,13.10
2022-07-25T22:40:03.176Z,13.08
2022-07-25T22:42:48.114Z,13.06
2022-07-25T22:45:33.453Z,13.00
2022-07-25T22:48:19.483Z,12.97
2022-07-25T22:51:04.307Z,12.93
2022-07-25T22:53:50.470Z,12.90
2022-07-25T22:56:35.852Z,12.86
2022-07-25T22:59:21.306Z,12.84
2022-07-25T23:02:06.248Z,12.79
2022-07-25T23:04:51.213Z,12.75
2022-07-25T23:07:36.446Z,12.72
2022-07-25T23:10:21.826Z,12.67
2022-07-25T23:13:06.741Z,12.63
2022-07-25T23:15:51.792Z,12.61
2022-07-25T23:18:37.540Z,12.60
2022-07-25T23:21:23.800Z,12.58
2022-07-25T23:24:09.672Z,12.56
2022-07-25T23:26:54.947Z,12.52
2022-07-25T23:29:39.846Z,12.45
2022-07-25T23:32:24.937Z,12.42
2022-07-25T23:35:10.345Z,12.38
2022-07-25T23:37:55.516Z,12.34
2022-07-25T23:40:40.537Z,12.36
2022-07-25T23:43:40.867Z,12.34
2022-07-25T23:46:31.271Z,12.30
2022-07-25T23:49:16.726Z,12.29
2022-07-25T23:52:01.680Z,12.32
2022-07-25T23:54:46.719Z,12.31
2022-07-25T23:57:31.805Z,12.26
